createdAt,value
2017-07-12T11:15:16.123Z,7592
2017-07-12T11:16:11.172Z,8020
2017-07-12T11:17:11.557Z,8252
2017-07-12T11:18:11.899Z,8400
2017-07-12T11:19:11.521Z,8264
2017-07-12T11:20:14.984Z,8096
2017-07-12T11:21:18.423Z,8036
2017-07-12T11:22:13.389Z,8448
2017-07-12T11:23:11.529Z,8900
2017-07-12T11:24:11.860Z,9060
2017-07-12T11:25:13.942Z,8880
2017-07-12T11:26:11.575Z,8692
2017-07-12T11:27:11.585Z,9136
2017-07-12T11:28:11.589Z,10144
2017-07-12T11:29:11.670Z,11024
2017-07-12T11:30:14.860Z,12080
2017-07-12T11:31:11.564Z,12220
2017-07-12T11:32:11.358Z,11032
2017-07-12T11:33:10.966Z,9956
2017-07-12T11:34:11.376Z,9860
2017-07-12T11:35:17.373Z,9040
2017-07-12T11:36:11.693Z,9196
2017-07-12T11:37:11.933Z,9600
2017-07-12T11:38:11.298Z,8056
2017-07-12T11:39:10.961Z,7800
2017-07-12T11:40:18.027Z,6144
2017-07-12T11:41:12.103Z,4988
2017-07-12T11:42:11.957Z,5552
2017-07-12T11:43:11.962Z,6620
2017-07-12T11:44:11.934Z,7404
2017-07-12T11:45:17.346Z,6568
2017-07-12T11:46:13.236Z,5572
2017-07-12T11:47:11.567Z,5472
2017-07-12T11:48:11.675Z,6412
2017-07-12T11:49:11.343Z,7384
2017-07-12T11:50:17.342Z,7524
2017-07-12T11:51:11.347Z,7052
2017-07-12T11:52:11.626Z,6588
2017-07-12T11:53:11.689Z,6552
2017-07-12T11:54:11.498Z,6680
2017-07-12T11:56:11.368Z,6620
2017-07-12T11:57:11.037Z,6476
2017-07-12T11:58:11.389Z,6652
2017-07-12T11:59:11.065Z,7564
2017-07-12T12:00:15.706Z,8624
2017-07-12T12:01:12.804Z,8184
2017-07-12T12:02:11.421Z,7796
2017-07-12T12:03:11.758Z,6732
2017-07-12T12:04:11.751Z,6096
2017-07-12T12:05:16.252Z,5680
2017-07-12T12:06:11.747Z,5056
2017-07-12T12:07:11.420Z,4972
2017-07-12T12:08:15.702Z,4592
2017-07-12T12:09:15.542Z,4220
2017-07-12T12:10:19.939Z,4660
2017-07-12T12:11:17.620Z,4952
2017-07-12T12:12:14.940Z,4556
2017-07-12T12:13:16.805Z,4364
2017-07-12T12:14:20.090Z,4168
2017-07-12T12:15:18.109Z,3808
2017-07-12T12:16:24.150Z,3544
2017-07-12T12:17:15.535Z,3424
2017-07-12T12:18:17.253Z,3344
2017-07-12T12:19:15.620Z,3280
2017-07-12T12:20:20.003Z,3372
2017-07-12T12:21:20.663Z,3620
2017-07-12T12:22:16.166Z,3392
2017-07-12T12:23:16.131Z,3000
2017-07-12T12:24:15.936Z,2752
2017-07-12T12:25:18.515Z,2696
2017-07-12T12:26:18.433Z,2480
2017-07-12T12:27:19.211Z,2324
2017-07-12T12:28:13.194Z,2484
2017-07-12T12:29:12.938Z,3048
2017-07-12T12:30:19.404Z,2952
2017-07-12T12:31:12.488Z,2700
2017-07-12T12:32:14.238Z,3412
2017-07-12T12:33:11.408Z,3100
2017-07-12T12:34:12.112Z,2580
2017-07-12T12:35:16.735Z,2288
2017-07-12T12:36:12.031Z,2404
2017-07-12T12:37:11.623Z,2788
2017-07-12T12:38:11.910Z,3044
2017-07-12T12:39:12.264Z,4364
2017-07-12T12:40:17.263Z,5564
2017-07-12T12:41:11.973Z,5536
2017-07-12T12:42:11.608Z,5896
2017-07-12T12:43:11.654Z,6104
2017-07-12T12:44:11.963Z,5496
2017-07-12T12:45:17.222Z,4672
2017-07-12T12:46:11.379Z,3752
2017-07-12T12:47:15.367Z,3312
2017-07-12T12:48:12.136Z,3028
2017-07-12T12:49:11.984Z,3128
2017-07-12T12:50:18.379Z,3056
2017-07-12T12:51:14.072Z,3228
2017-07-12T12:52:11.595Z,3208
2017-07-12T12:53:11.315Z,3312
2017-07-12T12:54:11.651Z,3496
2017-07-12T12:55:16.964Z,3580
2017-07-12T12:56:12.002Z,3840
2017-07-12T12:57:13.173Z,3736
2017-07-12T12:58:11.691Z,3724
2017-07-12T12:59:12.047Z,4508
2017-07-12T13:00:16.651Z,4636
2017-07-12T13:01:12.066Z,5132
2017-07-12T13:02:11.923Z,6096
2017-07-12T13:03:11.818Z,7308
2017-07-12T13:04:12.368Z,8692
2017-07-12T13:05:16.187Z,10008
2017-07-12T13:06:11.730Z,10424
2017-07-12T13:07:11.717Z,11280
2017-07-12T13:08:11.388Z,11740
2017-07-12T13:09:11.749Z,10604
2017-07-12T13:10:15.688Z,9612
2017-07-12T13:11:11.749Z,8908
2017-07-12T13:12:11.437Z,8532
2017-07-12T13:13:12.099Z,8348
2017-07-12T13:14:11.774Z,8544
2017-07-12T13:15:13.835Z,9108
2017-07-12T13:16:16.552Z,10008
2017-07-12T13:17:12.103Z,9472
2017-07-12T13:18:14.858Z,8672
2017-07-12T13:19:12.107Z,8772
2017-07-12T13:20:16.224Z,9852
2017-07-12T13:21:11.459Z,10128
2017-07-12T13:22:11.819Z,10056
2017-07-12T13:23:11.787Z,10000
2017-07-12T13:24:11.574Z,10592
2017-07-12T13:25:19.599Z,10452
2017-07-12T13:26:11.800Z,10408
2017-07-12T13:27:11.835Z,10344
2017-07-12T13:28:12.377Z,10128
2017-07-12T13:29:12.224Z,9368
2017-07-12T13:30:15.041Z,8712
2017-07-12T13:31:20.243Z,7616
2017-07-12T13:32:12.218Z,6800
2017-07-12T13:33:14.427Z,6004
2017-07-12T13:34:37.667Z,5672
2017-07-12T13:35:16.015Z,5648
2017-07-12T13:36:12.753Z,5720
2017-07-12T13:37:12.602Z,5568
2017-07-12T13:38:12.808Z,5560
2017-07-12T13:39:11.990Z,5432
2017-07-12T13:40:16.856Z,5288
2017-07-12T13:41:15.683Z,5140
2017-07-12T13:42:11.574Z,4816
2017-07-12T13:43:12.243Z,4904
2017-07-12T13:44:11.904Z,4920
2017-07-12T13:45:17.210Z,5184
2017-07-12T13:46:12.259Z,5368
2017-07-12T13:47:11.967Z,5288
2017-07-12T13:48:12.580Z,4648
2017-07-12T13:49:11.943Z,4032
2017-07-12T13:50:17.590Z,3992
2017-07-12T13:51:15.174Z,3956
2017-07-12T13:52:11.947Z,3700
2017-07-12T13:53:12.278Z,3664
2017-07-12T13:54:12.346Z,3932
2017-07-12T13:55:16.725Z,4248
2017-07-12T13:56:11.956Z,5048
2017-07-12T13:57:11.963Z,6132
2017-07-12T13:58:13.019Z,7972
2017-07-12T13:59:12.769Z,8928
2017-07-12T14:00:20.391Z,9556
2017-07-12T14:01:12.945Z,9368
2017-07-12T14:02:12.547Z,9072
2017-07-12T14:03:13.130Z,8608
2017-07-12T14:04:14.753Z,8092
2017-07-12T14:05:18.082Z,8032
2017-07-12T14:06:13.837Z,8716
2017-07-12T14:07:12.269Z,9756
2017-07-12T14:08:12.386Z,10932
2017-07-12T14:09:12.369Z,11492
2017-07-12T14:10:19.419Z,10824
2017-07-12T14:11:12.728Z,10328
2017-07-12T14:12:12.370Z,9928
2017-07-12T14:13:12.520Z,10108
2017-07-12T14:14:12.455Z,11924
2017-07-12T14:15:17.941Z,10120
2017-07-12T14:16:12.448Z,7844
2017-07-12T14:17:12.062Z,7376
2017-07-12T14:18:12.518Z,7308
2017-07-12T14:19:12.102Z,8004
2017-07-12T14:20:16.895Z,8320
2017-07-12T14:21:12.440Z,7916
2017-07-12T14:22:12.440Z,8604
2017-07-12T14:23:12.422Z,8912
2017-07-12T14:24:12.421Z,9820
2017-07-12T14:25:19.260Z,10712
2017-07-12T14:26:12.112Z,10468
2017-07-12T14:27:12.256Z,8732
2017-07-12T14:28:12.713Z,8508
2017-07-12T14:29:12.959Z,7656
2017-07-12T14:30:15.773Z,7340
2017-07-12T14:31:12.162Z,7952
2017-07-12T14:32:12.819Z,7376
2017-07-12T14:33:12.146Z,7272
2017-07-12T14:34:17.320Z,7560
2017-07-12T14:35:16.052Z,8576
2017-07-12T14:36:12.946Z,10064
2017-07-12T14:37:13.034Z,10116
2017-07-12T14:38:12.210Z,8864
2017-07-12T14:39:11.851Z,7196
2017-07-12T14:40:16.802Z,6456
2017-07-12T14:41:12.525Z,6312
2017-07-12T14:42:12.209Z,6188
2017-07-12T14:43:12.878Z,5968
2017-07-12T14:44:12.543Z,6236
2017-07-12T14:45:20.184Z,5376
2017-07-12T14:46:11.973Z,6388
2017-07-12T14:47:12.573Z,5784
2017-07-12T14:48:12.556Z,6216
2017-07-12T14:49:12.452Z,7412
2017-07-12T14:50:19.601Z,6924
2017-07-12T14:51:13.001Z,7576
2017-07-12T14:52:12.591Z,7348
2017-07-12T14:53:12.663Z,7016
2017-07-12T14:54:12.718Z,7012
2017-07-12T14:55:18.096Z,7272
2017-07-12T14:56:12.287Z,7448
2017-07-12T14:57:13.566Z,7476
2017-07-12T14:58:13.163Z,7392
2017-07-12T14:59:13.445Z,7336
2017-07-12T15:00:19.719Z,7616
2017-07-12T15:01:12.875Z,8172
2017-07-12T15:02:13.279Z,8780
2017-07-12T15:03:12.979Z,8772
2017-07-12T15:04:12.320Z,8604
2017-07-12T15:05:22.766Z,8188
2017-07-12T15:06:13.239Z,8016
2017-07-12T15:07:12.660Z,8320
2017-07-12T15:08:12.655Z,8772
2017-07-12T15:09:12.045Z,8896
2017-07-12T15:11:13.001Z,8160
2017-07-12T15:12:13.035Z,7372
2017-07-12T15:13:13.029Z,7580
2017-07-12T15:14:12.691Z,8228
2017-07-12T15:15:19.049Z,9176
2017-07-12T15:16:13.072Z,9960
2017-07-12T15:17:13.054Z,11040
2017-07-12T15:18:12.753Z,10484
2017-07-12T15:19:12.438Z,8476
2017-07-12T15:20:18.259Z,8092
2017-07-12T15:21:17.522Z,7384
2017-07-12T15:22:13.064Z,6348
2017-07-12T15:23:13.118Z,7100
2017-07-12T15:24:13.583Z,5976
2017-07-12T15:25:16.647Z,5816
2017-07-12T15:26:16.965Z,6020
2017-07-12T15:27:18.865Z,5988
2017-07-12T15:28:13.696Z,6244
2017-07-12T15:29:13.309Z,6148
2017-07-12T15:30:19.358Z,6916
2017-07-12T15:31:17.491Z,7720
2017-07-12T15:32:17.609Z,8320
2017-07-12T22:59:20.909Z,0
2017-07-12T23:00:33.212Z,0
2017-07-12T23:01:19.480Z,0
2017-07-12T23:02:19.223Z,0
2017-07-12T23:03:19.370Z,0
2017-07-12T23:04:19.932Z,0
2017-07-12T23:05:36.268Z,0
2017-07-12T23:06:19.377Z,0
2017-07-12T23:07:19.372Z,0
2017-07-12T23:08:19.364Z,0
2017-07-12T23:09:19.374Z,0
2017-07-12T23:10:32.659Z,0
2017-07-12T23:11:19.072Z,0
2017-07-12T23:12:19.406Z,0
2017-07-12T23:13:19.695Z,0
2017-07-12T23:14:19.983Z,0
2017-07-12T23:15:33.076Z,0
2017-07-12T23:16:19.444Z,0
2017-07-12T23:17:19.133Z,0
2017-07-12T23:18:19.044Z,0
2017-07-12T23:19:19.722Z,0
2017-07-12T23:20:34.676Z,0
2017-07-12T23:21:19.709Z,0
2017-07-12T23:22:19.712Z,0
2017-07-12T23:23:19.371Z,0
2017-07-12T23:24:19.710Z,0
2017-07-12T23:25:37.581Z,0
2017-07-12T23:26:19.033Z,0
2017-07-12T23:27:19.063Z,0
2017-07-12T23:28:19.748Z,0
2017-07-12T23:29:20.580Z,0
2017-07-12T23:30:34.729Z,0
2017-07-12T23:31:19.422Z,0
2017-07-12T23:32:19.717Z,0
2017-07-12T23:33:19.394Z,0
2017-07-12T23:34:19.406Z,0
2017-07-12T23:35:34.737Z,0
2017-07-12T23:36:19.394Z,0
2017-07-12T23:37:18.724Z,0
2017-07-12T23:38:19.744Z,0
2017-07-12T23:39:19.398Z,0
2017-07-12T23:40:34.709Z,0
2017-07-12T23:41:19.444Z,0
2017-07-12T23:42:19.071Z,0
2017-07-12T23:43:19.402Z,0
2017-07-12T23:44:19.421Z,0
2017-07-12T23:45:34.606Z,0
2017-07-12T23:46:19.204Z,0
2017-07-12T23:47:19.425Z,0
2017-07-12T23:48:19.426Z,0
2017-07-12T23:49:19.759Z,0
2017-07-12T23:50:43.992Z,0
2017-07-12T23:51:19.462Z,0
2017-07-12T23:52:18.744Z,0
2017-07-12T23:53:19.750Z,0
2017-07-12T23:54:19.529Z,0
2017-07-12T23:55:43.855Z,0
2017-07-12T23:56:18.914Z,0
2017-07-12T23:57:18.762Z,0
2017-07-12T23:58:19.771Z,0
2017-07-12T23:59:19.446Z,0
